sensor_id;sensor_type;location;lat;lon;timestamp;temperature;humidity
21662;DHT22;10992;48.170;8.596;2023-02-02T00:00:24;1.80;99.90
21662;DHT22;10992;48.170;8.596;2023-02-02T00:02:51;1.70;99.90
21662;DHT22;10992;48.170;8.596;2023-02-02T00:05:18;1.70;99.90
21662;DHT22;10992;48.170;8.596;2023-02-02T00:07:45;1.60;99.90
21662;DHT22;10992;48.170;8.596;2023-02-02T00:10:12;1.60;99.90
21662;DHT22;10992;48.170;8.596;2023-02-02T00:12:38;1.60;99.90
21662;DHT22;10992;48.170;8.596;2023-02-02T00:15:06;1.70;99.90
21662;DHT22;10992;48.170;8.596;2023-02-02T00:17:33;1.70;99.90
21662;DHT22;10992;48.170;8.596;2023-02-02T00:20:00;1.70;99.90
21662;DHT22;10992;48.170;8.596;2023-02-02T00:22:27;1.70;99.90
21662;DHT22;10992;48.170;8.596;2023-02-02T00:24:54;1.60;99.90
21662;DHT22;10992;48.170;8.596;2023-02-02T00:27:21;1.60;99.90
21662;DHT22;10992;48.170;8.596;2023-02-02T00:29:48;1.70;99.90
21662;DHT22;10992;48.170;8.596;2023-02-02T00:32:19;1.60;99.90
21662;DHT22;10992;48.170;8.596;2023-02-02T00:34:46;1.60;99.90
21662;DHT22;10992;48.170;8.596;2023-02-02T00:37:13;1.70;99.90
21662;DHT22;10992;48.170;8.596;2023-02-02T00:39:40;1.70;99.90
21662;DHT22;10992;48.170;8.596;2023-02-02T00:42:10;1.70;99.90
21662;DHT22;10992;48.170;8.596;2023-02-02T00:44:37;1.70;99.90
21662;DHT22;10992;48.170;8.596;2023-02-02T00:47:22;1.70;99.90
21662;DHT22;10992;48.170;8.596;2023-02-02T00:49:49;1.70;99.90
21662;DHT22;10992;48.170;8.596;2023-02-02T00:52:16;1.70;99.90
21662;DHT22;10992;48.170;8.596;2023-02-02T00:54:43;1.70;99.90
21662;DHT22;10992;48.170;8.596;2023-02-02T00:57:13;1.60;99.90
21662;DHT22;10992;48.170;8.596;2023-02-02T00:59:41;1.60;99.90
21662;DHT22;10992;48.170;8.596;2023-02-02T01:02:10;1.50;99.90
21662;DHT22;10992;48.170;8.596;2023-02-02T01:04:37;1.50;99.90
21662;DHT22;10992;48.170;8.596;2023-02-02T01:07:04;1.40;99.90
21662;DHT22;10992;48.170;8.596;2023-02-02T01:09:31;1.40;99.90
21662;DHT22;10992;48.170;8.596;2023-02-02T01:11:58;1.40;99.90
21662;DHT22;10992;48.170;8.596;2023-02-02T01:14:25;1.40;99.90
21662;DHT22;10992;48.170;8.596;2023-02-02T01:16:54;1.40;99.90
21662;DHT22;10992;48.170;8.596;2023-02-02T01:19:21;1.40;99.90
21662;DHT22;10992;48.170;8.596;2023-02-02T01:21:48;1.40;99.90
21662;DHT22;10992;48.170;8.596;2023-02-02T01:24:19;1.50;99.90
21662;DHT22;10992;48.170;8.596;2023-02-02T01:26:45;1.50;99.90
21662;DHT22;10992;48.170;8.596;2023-02-02T01:29:12;1.50;99.90
21662;DHT22;10992;48.170;8.596;2023-02-02T01:31:41;1.40;99.90
21662;DHT22;10992;48.170;8.596;2023-02-02T01:34:08;1.40;99.90
21662;DHT22;10992;48.170;8.596;2023-02-02T01:36:35;1.50;99.90
21662;DHT22;10992;48.170;8.596;2023-02-02T01:39:02;1.50;99.90
21662;DHT22;10992;48.170;8.596;2023-02-02T01:41:29;1.50;99.90
21662;DHT22;10992;48.170;8.596;2023-02-02T01:44:02;1.50;99.90
21662;DHT22;10992;48.170;8.596;2023-02-02T01:46:34;1.60;99.90
21662;DHT22;10992;48.170;8.596;2023-02-02T01:49:11;1.60;99.90
21662;DHT22;10992;48.170;8.596;2023-02-02T01:51:41;1.60;99.90
21662;DHT22;10992;48.170;8.596;2023-02-02T01:54:14;1.60;99.90
21662;DHT22;10992;48.170;8.596;2023-02-02T01:56:46;1.60;99.90
21662;DHT22;10992;48.170;8.596;2023-02-02T01:59:15;1.60;99.90
21662;DHT22;10992;48.170;8.596;2023-02-02T02:01:44;1.60;99.90
21662;DHT22;10992;48.170;8.596;2023-02-02T02:04:12;1.60;99.90
21662;DHT22;10992;48.170;8.596;2023-02-02T02:06:39;1.70;99.90
21662;DHT22;10992;48.170;8.596;2023-02-02T02:09:06;1.70;99.90
21662;DHT22;10992;48.170;8.596;2023-02-02T02:11:34;1.70;99.90
21662;DHT22;10992;48.170;8.596;2023-02-02T02:14:07;1.70;99.90
21662;DHT22;10992;48.170;8.596;2023-02-02T02:23:25;1.80;99.90
21662;DHT22;10992;48.170;8.596;2023-02-02T02:26:42;1.80;99.90
21662;DHT22;10992;48.170;8.596;2023-02-02T02:32:13;1.80;99.90
21662;DHT22;10992;48.170;8.596;2023-02-02T02:35:08;1.80;99.90
21662;DHT22;10992;48.170;8.596;2023-02-02T02:37:49;1.80;99.90
21662;DHT22;10992;48.170;8.596;2023-02-02T02:40:29;1.80;99.90
21662;DHT22;10992;48.170;8.596;2023-02-02T02:43:13;1.80;99.90
21662;DHT22;10992;48.170;8.596;2023-02-02T02:45:42;1.90;99.90
21662;DHT22;10992;48.170;8.596;2023-02-02T02:48:13;1.90;99.90
21662;DHT22;10992;48.170;8.596;2023-02-02T02:50:40;1.90;99.90
21662;DHT22;10992;48.170;8.596;2023-02-02T02:53:11;2.00;99.90
21662;DHT22;10992;48.170;8.596;2023-02-02T02:56:01;2.00;99.90
21662;DHT22;10992;48.170;8.596;2023-02-02T02:58:53;2.00;99.90
21662;DHT22;10992;48.170;8.596;2023-02-02T03:01:30;2.00;99.90
21662;DHT22;10992;48.170;8.596;2023-02-02T03:04:21;2.00;99.90
21662;DHT22;10992;48.170;8.596;2023-02-02T03:07:12;2.00;99.90
21662;DHT22;10992;48.170;8.596;2023-02-02T03:09:42;2.10;99.90
21662;DHT22;10992;48.170;8.596;2023-02-02T03:12:12;2.00;99.90
21662;DHT22;10992;48.170;8.596;2023-02-02T03:14:38;2.10;99.90
21662;DHT22;10992;48.170;8.596;2023-02-02T03:17:06;2.00;99.90
21662;DHT22;10992;48.170;8.596;2023-02-02T03:19:33;2.10;99.90
21662;DHT22;10992;48.170;8.596;2023-02-02T03:22:00;2.10;99.90
21662;DHT22;10992;48.170;8.596;2023-02-02T03:24:27;2.10;99.90
21662;DHT22;10992;48.170;8.596;2023-02-02T03:26:54;2.10;99.90
21662;DHT22;10992;48.170;8.596;2023-02-02T03:29:21;2.10;99.90
21662;DHT22;10992;48.170;8.596;2023-02-02T03:31:48;2.10;99.90
21662;DHT22;10992;48.170;8.596;2023-02-02T03:34:15;2.10;99.90
21662;DHT22;10992;48.170;8.596;2023-02-02T03:36:42;2.10;99.90
21662;DHT22;10992;48.170;8.596;2023-02-02T03:39:09;2.10;99.90
21662;DHT22;10992;48.170;8.596;2023-02-02T03:41:36;2.10;99.90
21662;DHT22;10992;48.170;8.596;2023-02-02T03:44:03;2.10;99.90
21662;DHT22;10992;48.170;8.596;2023-02-02T03:46:30;2.10;99.90
21662;DHT22;10992;48.170;8.596;2023-02-02T03:48:57;2.10;99.90
21662;DHT22;10992;48.170;8.596;2023-02-02T03:51:24;2.10;99.90
21662;DHT22;10992;48.170;8.596;2023-02-02T03:53:51;2.10;99.90
21662;DHT22;10992;48.170;8.596;2023-02-02T03:56:18;2.10;99.90
21662;DHT22;10992;48.170;8.596;2023-02-02T03:58:45;2.10;99.90
21662;DHT22;10992;48.170;8.596;2023-02-02T04:01:13;2.10;99.90
21662;DHT22;10992;48.170;8.596;2023-02-02T04:03:41;2.10;99.90
21662;DHT22;10992;48.170;8.596;2023-02-02T04:06:08;2.10;99.90
21662;DHT22;10992;48.170;8.596;2023-02-02T04:08:35;2.10;99.90
21662;DHT22;10992;48.170;8.596;2023-02-02T04:11:02;2.00;99.90
21662;DHT22;10992;48.170;8.596;2023-02-02T04:13:29;2.10;99.90
21662;DHT22;10992;48.170;8.596;2023-02-02T04:15:59;2.00;99.90
21662;DHT22;10992;48.170;8.596;2023-02-02T04:18:27;2.10;99.90
21662;DHT22;10992;48.170;8.596;2023-02-02T04:20:58;2.00;99.90
21662;DHT22;10992;48.170;8.596;2023-02-02T04:23:26;2.00;99.90
21662;DHT22;10992;48.170;8.596;2023-02-02T04:25:54;2.00;99.90
21662;DHT22;10992;48.170;8.596;2023-02-02T04:28:21;2.00;99.90
21662;DHT22;10992;48.170;8.596;2023-02-02T04:30:50;2.00;99.90
21662;DHT22;10992;48.170;8.596;2023-02-02T04:33:19;2.10;99.90
21662;DHT22;10992;48.170;8.596;2023-02-02T04:35:46;2.10;99.90
21662;DHT22;10992;48.170;8.596;2023-02-02T04:38:13;2.10;99.90
21662;DHT22;10992;48.170;8.596;2023-02-02T04:40:42;2.00;99.90
21662;DHT22;10992;48.170;8.596;2023-02-02T04:43:10;2.00;99.90
21662;DHT22;10992;48.170;8.596;2023-02-02T04:45:38;2.00;99.90
21662;DHT22;10992;48.170;8.596;2023-02-02T04:48:05;2.00;99.90
21662;DHT22;10992;48.170;8.596;2023-02-02T04:50:32;2.00;99.90
21662;DHT22;10992;48.170;8.596;2023-02-02T04:53:03;2.00;99.90
21662;DHT22;10992;48.170;8.596;2023-02-02T04:55:30;2.00;99.90
21662;DHT22;10992;48.170;8.596;2023-02-02T04:58:01;2.00;99.90
21662;DHT22;10992;48.170;8.596;2023-02-02T05:00:28;2.00;99.90
21662;DHT22;10992;48.170;8.596;2023-02-02T05:02:55;2.00;99.90
21662;DHT22;10992;48.170;8.596;2023-02-02T05:05:21;2.00;99.90
21662;DHT22;10992;48.170;8.596;2023-02-02T05:07:49;2.10;99.90
21662;DHT22;10992;48.170;8.596;2023-02-02T05:10:16;2.00;99.90
21662;DHT22;10992;48.170;8.596;2023-02-02T05:12:43;2.00;99.90
21662;DHT22;10992;48.170;8.596;2023-02-02T05:15:10;2.00;99.90
21662;DHT22;10992;48.170;8.596;2023-02-02T05:17:37;2.00;99.90
21662;DHT22;10992;48.170;8.596;2023-02-02T05:20:04;2.10;99.90
21662;DHT22;10992;48.170;8.596;2023-02-02T05:22:31;2.10;99.90
21662;DHT22;10992;48.170;8.596;2023-02-02T05:24:58;2.10;99.90
21662;DHT22;10992;48.170;8.596;2023-02-02T05:27:24;2.10;99.90
21662;DHT22;10992;48.170;8.596;2023-02-02T05:29:51;2.10;99.90
21662;DHT22;10992;48.170;8.596;2023-02-02T05:32:19;2.10;99.90
21662;DHT22;10992;48.170;8.596;2023-02-02T05:34:45;2.10;99.90
21662;DHT22;10992;48.170;8.596;2023-02-02T05:37:12;2.10;99.90
21662;DHT22;10992;48.170;8.596;2023-02-02T05:39:39;2.10;99.90
21662;DHT22;10992;48.170;8.596;2023-02-02T05:42:06;2.10;99.90
21662;DHT22;10992;48.170;8.596;2023-02-02T05:44:33;2.10;99.90
21662;DHT22;10992;48.170;8.596;2023-02-02T05:47:00;2.10;99.90
21662;DHT22;10992;48.170;8.596;2023-02-02T05:49:27;2.20;99.90
21662;DHT22;10992;48.170;8.596;2023-02-02T05:51:55;2.20;99.90
21662;DHT22;10992;48.170;8.596;2023-02-02T05:54:23;2.20;99.90
21662;DHT22;10992;48.170;8.596;2023-02-02T05:56:52;2.20;99.90
21662;DHT22;10992;48.170;8.596;2023-02-02T05:59:20;2.20;99.90
21662;DHT22;10992;48.170;8.596;2023-02-02T06:01:47;2.20;99.90
21662;DHT22;10992;48.170;8.596;2023-02-02T06:04:14;2.20;99.90
21662;DHT22;10992;48.170;8.596;2023-02-02T06:06:41;2.20;99.90
21662;DHT22;10992;48.170;8.596;2023-02-02T06:09:09;2.20;99.90
21662;DHT22;10992;48.170;8.596;2023-02-02T06:11:36;2.20;99.90
21662;DHT22;10992;48.170;8.596;2023-02-02T06:14:05;2.20;99.90
21662;DHT22;10992;48.170;8.596;2023-02-02T06:16:33;2.20;99.90
21662;DHT22;10992;48.170;8.596;2023-02-02T06:19:00;2.30;99.90
21662;DHT22;10992;48.170;8.596;2023-02-02T06:21:27;2.30;99.90
21662;DHT22;10992;48.170;8.596;2023-02-02T06:23:57;2.30;99.90
21662;DHT22;10992;48.170;8.596;2023-02-02T06:26:25;2.30;99.90
21662;DHT22;10992;48.170;8.596;2023-02-02T06:28:53;2.30;99.90
21662;DHT22;10992;48.170;8.596;2023-02-02T06:31:22;2.30;99.90
21662;DHT22;10992;48.170;8.596;2023-02-02T06:33:54;2.40;99.90
21662;DHT22;10992;48.170;8.596;2023-02-02T06:36:23;2.40;99.90
21662;DHT22;10992;48.170;8.596;2023-02-02T06:38:52;2.40;99.90
21662;DHT22;10992;48.170;8.596;2023-02-02T06:41:20;2.40;99.90
21662;DHT22;10992;48.170;8.596;2023-02-02T06:43:48;2.40;99.90
21662;DHT22;10992;48.170;8.596;2023-02-02T06:46:15;2.40;99.90
21662;DHT22;10992;48.170;8.596;2023-02-02T06:48:42;2.40;99.90
21662;DHT22;10992;48.170;8.596;2023-02-02T06:51:09;2.40;99.90
21662;DHT22;10992;48.170;8.596;2023-02-02T06:53:36;2.40;99.90
21662;DHT22;10992;48.170;8.596;2023-02-02T06:56:05;2.50;99.90
21662;DHT22;10992;48.170;8.596;2023-02-02T06:58:33;2.50;99.90
21662;DHT22;10992;48.170;8.596;2023-02-02T07:01:01;2.60;99.90
21662;DHT22;10992;48.170;8.596;2023-02-02T07:03:31;2.60;99.90
21662;DHT22;10992;48.170;8.596;2023-02-02T07:05:58;2.60;99.90
21662;DHT22;10992;48.170;8.596;2023-02-02T07:08:25;2.60;99.90
21662;DHT22;10992;48.170;8.596;2023-02-02T07:10:53;2.50;99.90
21662;DHT22;10992;48.170;8.596;2023-02-02T07:13:39;2.40;99.90
21662;DHT22;10992;48.170;8.596;2023-02-02T07:16:07;2.30;99.90
21662;DHT22;10992;48.170;8.596;2023-02-02T07:18:35;2.30;99.90
21662;DHT22;10992;48.170;8.596;2023-02-02T07:21:05;2.30;99.90
21662;DHT22;10992;48.170;8.596;2023-02-02T07:23:33;2.40;99.90
21662;DHT22;10992;48.170;8.596;2023-02-02T07:26:05;2.40;99.90
21662;DHT22;10992;48.170;8.596;2023-02-02T07:28:33;2.50;99.90
21662;DHT22;10992;48.170;8.596;2023-02-02T07:31:11;2.50;99.90
21662;DHT22;10992;48.170;8.596;2023-02-02T07:33:40;2.50;99.90
21662;DHT22;10992;48.170;8.596;2023-02-02T07:36:08;2.50;99.90
21662;DHT22;10992;48.170;8.596;2023-02-02T07:38:35;2.60;99.90
21662;DHT22;10992;48.170;8.596;2023-02-02T07:41:02;2.60;99.90
21662;DHT22;10992;48.170;8.596;2023-02-02T07:43:29;2.60;99.90
21662;DHT22;10992;48.170;8.596;2023-02-02T07:46:04;2.60;99.90
21662;DHT22;10992;48.170;8.596;2023-02-02T07:48:34;2.60;99.90
21662;DHT22;10992;48.170;8.596;2023-02-02T07:51:03;2.60;99.90
21662;DHT22;10992;48.170;8.596;2023-02-02T07:53:30;2.60;99.90
21662;DHT22;10992;48.170;8.596;2023-02-02T07:56:07;2.60;99.90
21662;DHT22;10992;48.170;8.596;2023-02-02T07:58:35;2.60;99.90
21662;DHT22;10992;48.170;8.596;2023-02-02T08:01:06;2.60;99.90
21662;DHT22;10992;48.170;8.596;2023-02-02T08:03:34;2.60;99.90
21662;DHT22;10992;48.170;8.596;2023-02-02T08:06:08;2.60;99.90
21662;DHT22;10992;48.170;8.596;2023-02-02T08:08:37;2.60;99.90
21662;DHT22;10992;48.170;8.596;2023-02-02T08:11:06;2.60;99.90
21662;DHT22;10992;48.170;8.596;2023-02-02T08:13:33;2.60;99.90
21662;DHT22;10992;48.170;8.596;2023-02-02T08:16:01;2.60;99.90
21662;DHT22;10992;48.170;8.596;2023-02-02T08:18:28;2.60;99.90
21662;DHT22;10992;48.170;8.596;2023-02-02T08:20:57;2.60;99.90
21662;DHT22;10992;48.170;8.596;2023-02-02T08:23:25;2.60;99.90
21662;DHT22;10992;48.170;8.596;2023-02-02T08:25:52;2.60;99.90
21662;DHT22;10992;48.170;8.596;2023-02-02T08:28:20;2.60;99.90
21662;DHT22;10992;48.170;8.596;2023-02-02T08:30:47;2.70;99.90
21662;DHT22;10992;48.170;8.596;2023-02-02T08:33:14;2.70;99.90
21662;DHT22;10992;48.170;8.596;2023-02-02T08:35:42;2.70;99.90
21662;DHT22;10992;48.170;8.596;2023-02-02T08:38:09;2.70;99.90
21662;DHT22;10992;48.170;8.596;2023-02-02T08:40:36;2.80;99.90
21662;DHT22;10992;48.170;8.596;2023-02-02T08:43:03;2.80;99.90
21662;DHT22;10992;48.170;8.596;2023-02-02T08:45:30;2.70;99.90
21662;DHT22;10992;48.170;8.596;2023-02-02T08:48:17;2.80;99.90
21662;DHT22;10992;48.170;8.596;2023-02-02T08:50:53;2.80;99.90
21662;DHT22;10992;48.170;8.596;2023-02-02T08:53:21;2.80;99.90
21662;DHT22;10992;48.170;8.596;2023-02-02T08:56:00;2.90;99.90
21662;DHT22;10992;48.170;8.596;2023-02-02T08:58:27;3.00;99.90
21662;DHT22;10992;48.170;8.596;2023-02-02T09:00:54;3.00;99.90
21662;DHT22;10992;48.170;8.596;2023-02-02T09:03:21;3.00;99.90
21662;DHT22;10992;48.170;8.596;2023-02-02T09:05:48;3.00;99.90
21662;DHT22;10992;48.170;8.596;2023-02-02T09:08:15;3.00;99.90
21662;DHT22;10992;48.170;8.596;2023-02-02T09:10:42;3.00;99.90
21662;DHT22;10992;48.170;8.596;2023-02-02T09:13:09;3.00;99.90
21662;DHT22;10992;48.170;8.596;2023-02-02T09:15:36;3.00;99.90
21662;DHT22;10992;48.170;8.596;2023-02-02T09:18:04;3.10;99.90
21662;DHT22;10992;48.170;8.596;2023-02-02T09:20:31;3.20;99.90
21662;DHT22;10992;48.170;8.596;2023-02-02T09:22:58;3.40;99.90
21662;DHT22;10992;48.170;8.596;2023-02-02T09:25:25;3.40;99.90
21662;DHT22;10992;48.170;8.596;2023-02-02T09:27:53;3.40;99.90
21662;DHT22;10992;48.170;8.596;2023-02-02T09:30:20;3.40;99.90
21662;DHT22;10992;48.170;8.596;2023-02-02T09:32:48;3.40;99.90
21662;DHT22;10992;48.170;8.596;2023-02-02T09:35:15;3.40;99.90
21662;DHT22;10992;48.170;8.596;2023-02-02T09:37:42;3.30;99.90
21662;DHT22;10992;48.170;8.596;2023-02-02T09:40:19;3.30;99.90
21662;DHT22;10992;48.170;8.596;2023-02-02T09:42:52;3.30;99.90
21662;DHT22;10992;48.170;8.596;2023-02-02T09:48:41;3.30;99.90
21662;DHT22;10992;48.170;8.596;2023-02-02T09:51:08;3.30;99.90
21662;DHT22;10992;48.170;8.596;2023-02-02T09:53:46;3.40;99.90
21662;DHT22;10992;48.170;8.596;2023-02-02T09:56:36;3.40;99.90
21662;DHT22;10992;48.170;8.596;2023-02-02T09:59:05;3.50;99.90
21662;DHT22;10992;48.170;8.596;2023-02-02T10:01:48;3.50;99.90
21662;DHT22;10992;48.170;8.596;2023-02-02T10:04:37;3.60;99.90
21662;DHT22;10992;48.170;8.596;2023-02-02T10:07:13;3.70;99.90
21662;DHT22;10992;48.170;8.596;2023-02-02T10:09:43;3.70;99.90
21662;DHT22;10992;48.170;8.596;2023-02-02T10:12:40;3.90;99.90
21662;DHT22;10992;48.170;8.596;2023-02-02T10:20:59;4.40;99.90
21662;DHT22;10992;48.170;8.596;2023-02-02T10:23:35;4.50;99.90
21662;DHT22;10992;48.170;8.596;2023-02-02T10:26:45;4.60;99.90
21662;DHT22;10992;48.170;8.596;2023-02-02T10:32:11;4.80;99.90
21662;DHT22;10992;48.170;8.596;2023-02-02T10:34:51;6.20;99.90
21662;DHT22;10992;48.170;8.596;2023-02-02T10:37:47;4.80;99.90
21662;DHT22;10992;48.170;8.596;2023-02-02T10:43:38;5.20;99.90
21662;DHT22;10992;48.170;8.596;2023-02-02T10:46:38;5.20;99.90
21662;DHT22;10992;48.170;8.596;2023-02-02T10:51:34;5.20;99.90
21662;DHT22;10992;48.170;8.596;2023-02-02T10:54:02;5.20;99.90
21662;DHT22;10992;48.170;8.596;2023-02-02T10:56:39;5.20;99.90
21662;DHT22;10992;48.170;8.596;2023-02-02T11:01:38;5.30;99.90
21662;DHT22;10992;48.170;8.596;2023-02-02T11:04:05;5.50;99.90
21662;DHT22;10992;48.170;8.596;2023-02-02T11:06:51;5.60;99.90
21662;DHT22;10992;48.170;8.596;2023-02-02T11:09:23;5.70;99.90
21662;DHT22;10992;48.170;8.596;2023-02-02T11:12:04;5.70;99.90
21662;DHT22;10992;48.170;8.596;2023-02-02T11:14:41;5.70;99.90
21662;DHT22;10992;48.170;8.596;2023-02-02T11:17:23;5.50;99.90
21662;DHT22;10992;48.170;8.596;2023-02-02T11:19:51;5.50;99.90
21662;DHT22;10992;48.170;8.596;2023-02-02T11:22:37;5.50;99.90
21662;DHT22;10992;48.170;8.596;2023-02-02T11:25:25;5.50;99.90
21662;DHT22;10992;48.170;8.596;2023-02-02T11:27:53;5.50;99.90
21662;DHT22;10992;48.170;8.596;2023-02-02T11:30:27;5.30;99.90
21662;DHT22;10992;48.170;8.596;2023-02-02T11:32:55;5.20;99.90
21662;DHT22;10992;48.170;8.596;2023-02-02T11:35:25;5.30;99.90
21662;DHT22;10992;48.170;8.596;2023-02-02T11:37:58;5.50;99.90
21662;DHT22;10992;48.170;8.596;2023-02-02T11:40:37;5.70;99.90
21662;DHT22;10992;48.170;8.596;2023-02-02T11:43:19;5.80;99.90
21662;DHT22;10992;48.170;8.596;2023-02-02T11:45:52;5.70;99.90
21662;DHT22;10992;48.170;8.596;2023-02-02T11:48:25;5.50;99.90
21662;DHT22;10992;48.170;8.596;2023-02-02T11:50:55;5.50;99.90
21662;DHT22;10992;48.170;8.596;2023-02-02T11:55:53;5.80;99.90
21662;DHT22;10992;48.170;8.596;2023-02-02T11:58:27;5.80;99.90
21662;DHT22;10992;48.170;8.596;2023-02-02T12:00:58;5.70;99.90
21662;DHT22;10992;48.170;8.596;2023-02-02T12:05:54;5.50;99.90
21662;DHT22;10992;48.170;8.596;2023-02-02T12:08:22;5.40;99.90
21662;DHT22;10992;48.170;8.596;2023-02-02T12:10:59;5.30;99.90
21662;DHT22;10992;48.170;8.596;2023-02-02T12:13:47;5.20;99.90
21662;DHT22;10992;48.170;8.596;2023-02-02T12:19:21;5.10;99.90
21662;DHT22;10992;48.170;8.596;2023-02-02T12:22:09;5.00;99.90
21662;DHT22;10992;48.170;8.596;2023-02-02T12:28:01;4.80;99.90
21662;DHT22;10992;48.170;8.596;2023-02-02T12:30:25;4.80;99.90
21662;DHT22;10992;48.170;8.596;2023-02-02T12:44:13;4.80;99.90
21662;DHT22;10992;48.170;8.596;2023-02-02T12:58:00;4.90;99.90
21662;DHT22;10992;48.170;8.596;2023-02-02T13:00:49;5.00;99.90
21662;DHT22;10992;48.170;8.596;2023-02-02T13:03:35;4.80;99.90
21662;DHT22;10992;48.170;8.596;2023-02-02T13:14:21;4.90;99.90
21662;DHT22;10992;48.170;8.596;2023-02-02T13:16:53;4.90;99.90
21662;DHT22;10992;48.170;8.596;2023-02-02T13:19:43;4.90;99.90
21662;DHT22;10992;48.170;8.596;2023-02-02T13:22:24;4.80;99.90
21662;DHT22;10992;48.170;8.596;2023-02-02T13:24:56;4.70;99.90
21662;DHT22;10992;48.170;8.596;2023-02-02T13:27:28;4.70;99.90
21662;DHT22;10992;48.170;8.596;2023-02-02T13:30:47;4.50;99.90
21662;DHT22;10992;48.170;8.596;2023-02-02T13:32:49;4.40;99.90
21662;DHT22;10992;48.170;8.596;2023-02-02T13:38:27;4.40;99.90
21662;DHT22;10992;48.170;8.596;2023-02-02T13:41:00;4.50;99.90
21662;DHT22;10992;48.170;8.596;2023-02-02T13:43:58;4.50;99.90
21662;DHT22;10992;48.170;8.596;2023-02-02T13:47:19;4.50;99.90
21662;DHT22;10992;48.170;8.596;2023-02-02T13:49:49;4.70;99.90
21662;DHT22;10992;48.170;8.596;2023-02-02T13:53:03;4.60;99.90
21662;DHT22;10992;48.170;8.596;2023-02-02T13:55:48;4.70;99.90
21662;DHT22;10992;48.170;8.596;2023-02-02T14:00:55;4.60;99.90
21662;DHT22;10992;48.170;8.596;2023-02-02T14:03:49;4.70;99.90
21662;DHT22;10992;48.170;8.596;2023-02-02T14:06:20;4.70;99.90
21662;DHT22;10992;48.170;8.596;2023-02-02T14:11:37;4.90;99.90
21662;DHT22;10992;48.170;8.596;2023-02-02T14:14:19;4.90;99.90
21662;DHT22;10992;48.170;8.596;2023-02-02T14:19:59;4.90;99.90
21662;DHT22;10992;48.170;8.596;2023-02-02T14:22:47;4.90;99.90
21662;DHT22;10992;48.170;8.596;2023-02-02T14:28:00;5.00;99.90
21662;DHT22;10992;48.170;8.596;2023-02-02T14:30:31;4.90;99.90
21662;DHT22;10992;48.170;8.596;2023-02-02T14:33:25;4.90;99.90
21662;DHT22;10992;48.170;8.596;2023-02-02T14:35:57;4.90;99.90
21662;DHT22;10992;48.170;8.596;2023-02-02T14:39:02;4.80;99.90
21662;DHT22;10992;48.170;8.596;2023-02-02T14:46:11;4.40;99.90
21662;DHT22;10992;48.170;8.596;2023-02-02T14:58:44;4.10;99.90
21662;DHT22;10992;48.170;8.596;2023-02-02T15:06:34;3.90;99.90
21662;DHT22;10992;48.170;8.596;2023-02-02T15:14:49;3.60;99.90
21662;DHT22;10992;48.170;8.596;2023-02-02T15:28:25;3.60;99.90
21662;DHT22;10992;48.170;8.596;2023-02-02T15:31:04;3.60;99.90
21662;DHT22;10992;48.170;8.596;2023-02-02T15:33:38;3.60;99.90
21662;DHT22;10992;48.170;8.596;2023-02-02T15:38:52;3.60;99.90
21662;DHT22;10992;48.170;8.596;2023-02-02T15:41:31;3.60;99.90
21662;DHT22;10992;48.170;8.596;2023-02-02T15:43:59;3.50;99.90
21662;DHT22;10992;48.170;8.596;2023-02-02T15:46:31;3.50;99.90
21662;DHT22;10992;48.170;8.596;2023-02-02T15:49:25;3.50;99.90
21662;DHT22;10992;48.170;8.596;2023-02-02T15:52:10;3.50;99.90
21662;DHT22;10992;48.170;8.596;2023-02-02T15:54:57;3.60;99.90
21662;DHT22;10992;48.170;8.596;2023-02-02T15:59:51;3.60;99.90
21662;DHT22;10992;48.170;8.596;2023-02-02T16:04:52;3.60;99.90
21662;DHT22;10992;48.170;8.596;2023-02-02T16:07:24;3.60;99.90
21662;DHT22;10992;48.170;8.596;2023-02-02T16:09:53;3.50;99.90
21662;DHT22;10992;48.170;8.596;2023-02-02T16:12:21;3.60;99.90
21662;DHT22;10992;48.170;8.596;2023-02-02T16:14:51;3.50;99.90
21662;DHT22;10992;48.170;8.596;2023-02-02T16:17:30;3.50;99.90
21662;DHT22;10992;48.170;8.596;2023-02-02T16:20:13;3.60;99.90
21662;DHT22;10992;48.170;8.596;2023-02-02T16:22:41;3.60;99.90
21662;DHT22;10992;48.170;8.596;2023-02-02T16:25:20;3.50;99.90
21662;DHT22;10992;48.170;8.596;2023-02-02T16:27:48;3.50;99.90
21662;DHT22;10992;48.170;8.596;2023-02-02T16:30:29;3.50;99.90
21662;DHT22;10992;48.170;8.596;2023-02-02T16:32:56;3.50;99.90
21662;DHT22;10992;48.170;8.596;2023-02-02T16:35:36;3.50;99.90
21662;DHT22;10992;48.170;8.596;2023-02-02T16:38:14;3.50;99.90
21662;DHT22;10992;48.170;8.596;2023-02-02T16:40:48;3.50;99.90
21662;DHT22;10992;48.170;8.596;2023-02-02T16:43:18;3.50;99.90
21662;DHT22;10992;48.170;8.596;2023-02-02T16:46:12;3.50;99.90
21662;DHT22;10992;48.170;8.596;2023-02-02T16:48:58;3.50;99.90
21662;DHT22;10992;48.170;8.596;2023-02-02T16:51:27;3.50;99.90
21662;DHT22;10992;48.170;8.596;2023-02-02T16:56:40;3.50;99.90
21662;DHT22;10992;48.170;8.596;2023-02-02T16:59:32;3.50;99.90
21662;DHT22;10992;48.170;8.596;2023-02-02T17:02:03;3.40;99.90
21662;DHT22;10992;48.170;8.596;2023-02-02T17:04:46;3.50;99.90
21662;DHT22;10992;48.170;8.596;2023-02-02T17:07:14;3.50;99.90
21662;DHT22;10992;48.170;8.596;2023-02-02T17:09:44;3.40;99.90
21662;DHT22;10992;48.170;8.596;2023-02-02T17:15:24;3.40;99.90
21662;DHT22;10992;48.170;8.596;2023-02-02T17:17:54;3.40;99.90
21662;DHT22;10992;48.170;8.596;2023-02-02T17:20:22;3.50;99.90
21662;DHT22;10992;48.170;8.596;2023-02-02T17:22:56;3.50;99.90
21662;DHT22;10992;48.170;8.596;2023-02-02T17:27:57;3.40;99.90
21662;DHT22;10992;48.170;8.596;2023-02-02T17:30:28;3.40;99.90
21662;DHT22;10992;48.170;8.596;2023-02-02T17:32:55;3.40;99.90
21662;DHT22;10992;48.170;8.596;2023-02-02T17:35:24;3.40;99.90
21662;DHT22;10992;48.170;8.596;2023-02-02T17:37:53;3.40;99.90
21662;DHT22;10992;48.170;8.596;2023-02-02T17:40:21;3.40;99.90
21662;DHT22;10992;48.170;8.596;2023-02-02T17:42:51;3.40;99.90
21662;DHT22;10992;48.170;8.596;2023-02-02T17:45:23;3.40;99.90
21662;DHT22;10992;48.170;8.596;2023-02-02T17:47:54;3.40;99.90
21662;DHT22;10992;48.170;8.596;2023-02-02T17:50:21;3.40;99.90
21662;DHT22;10992;48.170;8.596;2023-02-02T17:52:48;3.40;99.90
21662;DHT22;10992;48.170;8.596;2023-02-02T17:57:50;3.40;99.90
21662;DHT22;10992;48.170;8.596;2023-02-02T18:00:20;3.40;99.90
21662;DHT22;10992;48.170;8.596;2023-02-02T18:03:00;3.40;99.90
21662;DHT22;10992;48.170;8.596;2023-02-02T18:05:30;3.40;99.90
21662;DHT22;10992;48.170;8.596;2023-02-02T18:07:57;3.40;99.90
21662;DHT22;10992;48.170;8.596;2023-02-02T18:10:24;3.30;99.90
21662;DHT22;10992;48.170;8.596;2023-02-02T18:12:52;3.30;99.90
21662;DHT22;10992;48.170;8.596;2023-02-02T18:15:20;3.20;99.90
21662;DHT22;10992;48.170;8.596;2023-02-02T18:17:47;3.20;99.90
21662;DHT22;10992;48.170;8.596;2023-02-02T18:20:14;3.20;99.90
21662;DHT22;10992;48.170;8.596;2023-02-02T18:22:42;3.20;99.90
21662;DHT22;10992;48.170;8.596;2023-02-02T18:25:10;3.20;99.90
21662;DHT22;10992;48.170;8.596;2023-02-02T18:27:37;3.10;99.90
21662;DHT22;10992;48.170;8.596;2023-02-02T18:30:04;3.10;99.90
21662;DHT22;10992;48.170;8.596;2023-02-02T18:32:40;3.10;99.90
21662;DHT22;10992;48.170;8.596;2023-02-02T18:35:08;3.10;99.90